Daisinmaru No.11 — JK5352 — position and weather

sailwx.info

Track history (hours):
 
Tides and Currents Weather Stations Pressure Air Temp Water Temp Dewpoint Dewpoint Depression Visibility Wind Speed Wind Dir Waves Ship Positions

Daisinmaru No.11

Last reported at 2017-Mar-18 04:30 UTC. Time now 2017-Mar-24 10:30 UTC.
Position N 35°29' E 139°54'.

Length 52 m.

MMSI: 431000667.

Date/timePositionNaut miles runAvg speedWind from/ knotsBaromVisibWave heightAir tempDewpointWater temp
2017-Mar-18 04:30N 35°29' E 139°54'9 9.2
2017-Mar-18 03:33N 35°29' E 139°43'0 0.3
2017-Mar-18 02:33N 35°29' E 139°43'0 0.1
2017-Mar-18 01:33N 35°29' E 139°43'3 3.3
2017-Mar-18 00:33N 35°30' E 139°47'10 9.6
2017-Mar-17 23:33N 35°29' E 139°58'1 0.1
2017-Mar-17 10:19N 35°30' E 139°60'9 2.4
2017-Mar-17 06:29N 35°30' E 139°48'5 5.2
2017-Mar-17 05:33N 35°29' E 139°43'0 0.0
2017-Mar-17 04:33N 35°29' E 139°43'0 0.0
2017-Mar-17 03:34N 35°29' E 139°43'2 2.0
2017-Mar-17 02:33N 35°30' E 139°45'1110.1
2017-Mar-17 01:28N 35°29' E 139°58'7 0.2
2017-Mar-15 06:33N 35°30' E 139°50'6 6.1
2017-Mar-15 05:33N 35°29' E 139°43'0 0.0
2017-Mar-15 04:33N 35°29' E 139°43'0 0.0
2017-Mar-15 03:33N 35°29' E 139°43'1 0.8
2017-Mar-15 02:34N 35°30' E 139°44'10 9.5
2017-Mar-15 01:33N 35°29' E 139°55'  
2017-Mar-11 07:21N 35°29' E 139°59'4 1.1
2017-Mar-11 04:11N 35°32' E 139°58'6 9.5
2017-Mar-11 03:33N 35°31' E 139°51'7 6.9
2017-Mar-11 02:33N 35°29' E 139°43'0 0.0
2017-Mar-11 01:33N 35°29' E 139°43'3 3.5
2017-Mar-11 00:33N 35°30' E 139°47'1 0.0
2017-Mar-10 06:33N 35°30' E 139°48'4 4.1
2017-Mar-10 05:34N 35°29' E 139°43'0 0.0
2017-Mar-10 04:34N 35°29' E 139°43'0 0.0
2017-Mar-10 03:34N 35°29' E 139°43'4 3.8
2017-Mar-10 02:34N 35°30' E 139°47'1 0.0
2017-Mar-08 06:33N 35°30' E 139°48'5 4.7
2017-Mar-08 05:33N 35°29' E 139°43'0 0.0
2017-Mar-08 04:33N 35°29' E 139°43'  
Track history (hours):
 
Tides and Currents Weather Stations Pressure Air Temp Water Temp Dewpoint Dewpoint Depression Visibility Wind Speed Wind Dir Waves Ship Positions

Daisinmaru No.11

Last reported at 2017-Mar-18 04:30 UTC. Time now 2017-Mar-24 10:30 UTC.
Position N 35°29' E 139°54'.

Length 52 m.

MMSI: 431000667.

Date/timePositionNaut miles runAvg speedWind from/ knotsBaromVisibWave heightAir tempDewpointWater temp
2017-Mar-18 04:30N 35°29' E 139°54'9 9.2
2017-Mar-18 03:33N 35°29' E 139°43'0 0.3
2017-Mar-18 02:33N 35°29' E 139°43'0 0.1
2017-Mar-18 01:33N 35°29' E 139°43'3 3.3
2017-Mar-18 00:33N 35°30' E 139°47'10 9.6
2017-Mar-17 23:33N 35°29' E 139°58'1 0.1
2017-Mar-17 10:19N 35°30' E 139°60'9 2.4
2017-Mar-17 06:29N 35°30' E 139°48'5 5.2
2017-Mar-17 05:33N 35°29' E 139°43'0 0.0
2017-Mar-17 04:33N 35°29' E 139°43'0 0.0
2017-Mar-17 03:34N 35°29' E 139°43'2 2.0
2017-Mar-17 02:33N 35°30' E 139°45'1110.1
2017-Mar-17 01:28N 35°29' E 139°58'7 0.2
2017-Mar-15 06:33N 35°30' E 139°50'6 6.1
2017-Mar-15 05:33N 35°29' E 139°43'0 0.0
2017-Mar-15 04:33N 35°29' E 139°43'0 0.0
2017-Mar-15 03:33N 35°29' E 139°43'1 0.8
2017-Mar-15 02:34N 35°30' E 139°44'10 9.5
2017-Mar-15 01:33N 35°29' E 139°55'  
2017-Mar-11 07:21N 35°29' E 139°59'4 1.1
2017-Mar-11 04:11N 35°32' E 139°58'6 9.5
2017-Mar-11 03:33N 35°31' E 139°51'7 6.9
2017-Mar-11 02:33N 35°29' E 139°43'0 0.0
2017-Mar-11 01:33N 35°29' E 139°43'3 3.5
2017-Mar-11 00:33N 35°30' E 139°47'1 0.0
2017-Mar-10 06:33N 35°30' E 139°48'4 4.1
2017-Mar-10 05:34N 35°29' E 139°43'0 0.0
2017-Mar-10 04:34N 35°29' E 139°43'0 0.0
2017-Mar-10 03:34N 35°29' E 139°43'4 3.8
2017-Mar-10 02:34N 35°30' E 139°47'1 0.0
2017-Mar-08 06:33N 35°30' E 139°48'5 4.7
2017-Mar-08 05:33N 35°29' E 139°43'0 0.0
2017-Mar-08 04:33N 35°29' E 139°43'  

Dump ship's entire track history